Time;durP1;ratioP1;P1;durP2;ratioP2;P2;SDS_P1;SDS_P2;PMS_P1;PMS_P2;Temp;Humidity;BMP_temperature;BMP_pressure;BME280_temperature;BME280_humidity;BME280_pressure;Samples;Min_cycle;Max_cycle;Signal;HPM_P1;HPM_P2
2023/08/07 00:00:59;;;;;;;7.67;2.80;;;;;;;;;;5141084;27;20023;-62
2023/08/07 00:03:24;;;;;;;4.63;2.30;;;;;;;;;;5130563;27;20031;-63
2023/08/07 00:05:51;;;;;;;4.80;2.10;;;;;;;;;;5135925;27;20167;-62
2023/08/07 00:08:17;;;;;;;5.00;2.13;;;;;;;;;;5119887;27;20479;-63
2023/08/07 00:10:42;;;;;;;4.33;2.37;;;;;;;;;;5114116;28;20039;-62
2023/08/07 00:13:07;;;;;;;4.97;1.90;;;;;;;;;;5124548;27;20479;-62
2023/08/07 00:15:33;;;;;;;4.57;2.13;;;;;;;;;;5133271;27;20027;-62
2023/08/07 00:17:58;;;;;;;5.00;2.15;;;;;;;;;;5118906;27;20024;-62
2023/08/07 00:20:23;;;;;;;4.47;2.23;;;;;;;;;;5112971;27;20122;-63
2023/08/07 00:22:48;;;;;;;5.60;1.87;;;;;;;;;;5131664;27;20088;-63
2023/08/07 00:25:14;;;;;;;3.88;1.75;;;;;;;;;;5120875;27;20034;-62
2023/08/07 00:27:39;;;;;;;3.90;2.03;;;;;;;;;;5122612;27;20023;-61
2023/08/07 00:30:04;;;;;;;4.30;2.03;;;;;;;;;;5127058;27;20110;-62
2023/08/07 00:32:30;;;;;;;4.10;2.15;;;;;;;;;;5133851;27;20424;-61
2023/08/07 00:34:55;;;;;;;4.73;2.13;;;;;;;;;;5133314;27;20025;-62
2023/08/07 00:37:20;;;;;;;5.47;1.80;;;;;;;;;;5133996;27;20543;-61
2023/08/07 00:39:45;;;;;;;4.97;2.13;;;;;;;;;;5133837;27;20066;-62
2023/08/07 00:42:10;;;;;;;3.78;1.60;;;;;;;;;;5131905;27;20046;-63
2023/08/07 00:44:35;;;;;;;4.20;2.20;;;;;;;;;;5132974;27;20478;-61
2023/08/07 00:47:00;;;;;;;5.43;2.30;;;;;;;;;;5133946;27;20076;-62
2023/08/07 00:49:27;;;;;;;6.70;2.03;;;;;;;;;;5132241;27;20011;-61
2023/08/07 00:51:54;;;;;;;3.53;1.60;;;;;;;;;;5131809;27;20634;-63
2023/08/07 00:54:19;;;;;;;4.68;2.10;;;;;;;;;;5132929;27;20023;-62
2023/08/07 00:56:45;;;;;;;3.85;1.90;;;;;;;;;;5131864;27;20423;-62
2023/08/07 00:59:10;;;;;;;4.75;1.80;;;;;;;;;;5133502;27;20011;-62
2023/08/07 01:01:36;;;;;;;5.10;2.25;;;;;;;;;;5133567;27;20094;-62
2023/08/07 01:04:01;;;;;;;3.63;1.75;;;;;;;;;;5132647;27;20034;-63
2023/08/07 01:06:26;;;;;;;4.30;2.00;;;;;;;;;;5133473;27;20023;-62
2023/08/07 01:08:51;;;;;;;5.33;2.30;;;;;;;;;;5133411;27;20090;-63
2023/08/07 01:11:19;;;;;;;5.30;2.47;;;;;;;;;;5132795;27;20041;-63
2023/08/07 01:13:51;;;;;;;4.35;2.50;;;;;;;;;;5131407;27;20417;-64
2023/08/07 01:16:18;;;;;;;4.25;2.47;;;;;;;;;;5131845;27;20022;-62
2023/08/07 01:18:44;;;;;;;5.15;3.00;;;;;;;;;;5133248;27;20063;-62
2023/08/07 01:21:17;;;;;;;5.20;2.90;;;;;;;;;;5133254;27;20046;-62
2023/08/07 01:23:42;;;;;;;5.15;2.63;;;;;;;;;;5131989;27;20045;-61
2023/08/07 01:26:07;;;;;;;5.67;2.93;;;;;;;;;;5131636;27;20015;-61
2023/08/07 01:28:36;;;;;;;5.50;2.87;;;;;;;;;;5128221;27;20041;-62
2023/08/07 01:31:04;;;;;;;5.72;3.05;;;;;;;;;;5113038;27;20039;-62
2023/08/07 01:33:32;;;;;;;5.28;2.88;;;;;;;;;;5122880;27;20019;-63
2023/08/07 01:35:58;;;;;;;4.85;2.83;;;;;;;;;;5120397;27;20023;-63
2023/08/07 01:38:25;;;;;;;5.28;3.40;;;;;;;;;;5122523;27;20022;-63
2023/08/07 01:40:50;;;;;;;4.55;2.70;;;;;;;;;;5132207;27;20019;-63
2023/08/07 01:43:16;;;;;;;5.07;2.87;;;;;;;;;;5130573;27;20023;-63
2023/08/07 01:45:41;;;;;;;6.13;3.20;;;;;;;;;;5128977;27;20022;-61
2023/08/07 01:48:06;;;;;;;4.73;2.73;;;;;;;;;;5132991;27;20520;-61
2023/08/07 01:50:32;;;;;;;5.45;3.00;;;;;;;;;;5133413;27;20022;-61
2023/08/07 01:52:57;;;;;;;5.03;3.23;;;;;;;;;;5118437;27;20141;-61
2023/08/07 01:55:23;;;;;;;5.20;3.40;;;;;;;;;;5115571;27;20486;-62
2023/08/07 01:57:48;;;;;;;5.65;3.22;;;;;;;;;;5128117;27;20455;-62
2023/08/07 02:00:13;;;;;;;6.03;3.27;;;;;;;;;;5132698;27;20023;-61
2023/08/07 02:02:38;;;;;;;6.30;3.63;;;;;;;;;;5132549;27;20050;-62
2023/08/07 02:05:04;;;;;;;7.15;3.38;;;;;;;;;;5117718;27;20052;-62
2023/08/07 02:07:29;;;;;;;4.70;2.63;;;;;;;;;;5121251;27;20388;-62
2023/08/07 02:09:54;;;;;;;5.65;3.53;;;;;;;;;;5114315;28;20501;-63
2023/08/07 02:12:20;;;;;;;5.63;3.33;;;;;;;;;;5111742;28;20091;-63
2023/08/07 02:14:45;;;;;;;4.90;2.65;;;;;;;;;;5124102;27;20455;-60
2023/08/07 02:17:10;;;;;;;7.27;3.60;;;;;;;;;;5112491;28;20032;-63
2023/08/07 02:19:35;;;;;;;6.40;3.73;;;;;;;;;;5118423;27;20035;-63
2023/08/07 02:22:01;;;;;;;6.32;3.92;;;;;;;;;;5122083;27;20028;-61
2023/08/07 02:24:26;;;;;;;6.70;4.07;;;;;;;;;;5110181;28;20031;-62
2023/08/07 02:26:51;;;;;;;6.03;4.30;;;;;;;;;;5114032;28;20155;-62
2023/08/07 02:29:16;;;;;;;9.68;4.72;;;;;;;;;;5123339;28;20027;-63
2023/08/07 02:31:41;;;;;;;9.32;4.85;;;;;;;;;;5123191;28;20054;-62
2023/08/07 02:34:06;;;;;;;8.97;5.57;;;;;;;;;;5116198;27;20023;-62
2023/08/07 02:36:32;;;;;;;6.60;4.83;;;;;;;;;;5131566;27;20027;-61
2023/08/07 02:38:57;;;;;;;8.77;5.13;;;;;;;;;;5129225;27;20612;-61
2023/08/07 02:41:22;;;;;;;8.27;5.10;;;;;;;;;;5116984;27;20038;-63
2023/08/07 02:43:47;;;;;;;8.23;5.43;;;;;;;;;;5123270;27;20114;-61
2023/08/07 02:46:12;;;;;;;8.68;5.45;;;;;;;;;;5110098;28;20016;-62
2023/08/07 02:48:39;;;;;;;8.07;5.20;;;;;;;;;;5109971;28;20024;-63
2023/08/07 02:51:04;;;;;;;7.13;5.50;;;;;;;;;;5114264;28;20103;-61
2023/08/07 02:53:29;;;;;;;8.63;5.20;;;;;;;;;;5124206;27;20606;-62
2023/08/07 02:55:54;;;;;;;7.90;4.87;;;;;;;;;;5118253;28;20048;-62
2023/08/07 02:58:19;;;;;;;8.40;4.70;;;;;;;;;;5117904;27;20091;-62
2023/08/07 03:00:45;;;;;;;8.70;4.73;;;;;;;;;;5124984;27;20020;-62
2023/08/07 03:03:10;;;;;;;7.43;4.45;;;;;;;;;;5075025;28;1091258;-62
2023/08/07 03:05:35;;;;;;;8.13;4.82;;;;;;;;;;5110709;28;20024;-63
2023/08/07 03:08:00;;;;;;;9.30;5.40;;;;;;;;;;5110517;28;20099;-61
2023/08/07 03:10:25;;;;;;;7.43;5.10;;;;;;;;;;5114811;28;20039;-62
2023/08/07 03:12:50;;;;;;;6.13;4.40;;;;;;;;;;5118319;28;20035;-62
2023/08/07 03:15:16;;;;;;;7.83;4.30;;;;;;;;;;5125287;27;20026;-63
2023/08/07 03:17:41;;;;;;;6.63;4.37;;;;;;;;;;5114018;28;20020;-64
2023/08/07 03:20:06;;;;;;;8.83;4.57;;;;;;;;;;5110710;28;20023;-61
2023/08/07 03:22:31;;;;;;;5.72;3.72;;;;;;;;;;5111149;27;20382;-60
2023/08/07 03:24:57;;;;;;;8.17;3.37;;;;;;;;;;5110834;28;20059;-62
2023/08/07 03:27:22;;;;;;;7.10;3.90;;;;;;;;;;5118235;28;20380;-60
2023/08/07 03:29:47;;;;;;;9.17;3.73;;;;;;;;;;5123639;28;20039;-60
2023/08/07 03:32:12;;;;;;;6.63;3.58;;;;;;;;;;5110610;28;20384;-60
2023/08/07 03:34:37;;;;;;;5.77;3.10;;;;;;;;;;5120848;28;20020;-62
2023/08/07 03:37:02;;;;;;;9.60;3.43;;;;;;;;;;5110811;28;20054;-60
2023/08/07 03:39:28;;;;;;;5.55;2.72;;;;;;;;;;5110774;28;20034;-60
2023/08/07 03:41:53;;;;;;;6.10;2.93;;;;;;;;;;5117009;28;20515;-61
2023/08/07 03:44:18;;;;;;;5.00;2.63;;;;;;;;;;5128102;28;20482;-61
2023/08/07 03:46:43;;;;;;;6.30;3.10;;;;;;;;;;5126197;28;20034;-61
2023/08/07 03:49:08;;;;;;;6.33;3.20;;;;;;;;;;5116564;28;20155;-62
2023/08/07 03:51:34;;;;;;;6.47;3.07;;;;;;;;;;5130976;27;20031;-62
2023/08/07 03:53:59;;;;;;;7.27;2.70;;;;;;;;;;5128331;27;20023;-61
2023/08/07 03:56:24;;;;;;;5.70;2.80;;;;;;;;;;5112948;27;20046;-61
2023/08/07 03:58:50;;;;;;;5.40;2.90;;;;;;;;;;5117682;28;20496;-61
2023/08/07 04:01:15;;;;;;;6.38;2.88;;;;;;;;;;5114323;28;20023;-61
2023/08/07 04:03:40;;;;;;;5.82;3.45;;;;;;;;;;5109050;27;20031;-61
2023/08/07 04:06:05;;;;;;;6.43;3.20;;;;;;;;;;5128677;27;20011;-61
2023/08/07 04:08:31;;;;;;;7.50;3.43;;;;;;;;;;5126852;27;20085;-61
2023/08/07 04:11:03;;;;;;;7.13;2.83;;;;;;;;;;5113491;27;20062;-61
2023/08/07 04:13:28;;;;;;;6.45;3.33;;;;;;;;;;5127218;27;20449;-62
2023/08/07 04:15:54;;;;;;;7.80;3.65;;;;;;;;;;5125762;27;20126;-61
2023/08/07 04:18:19;;;;;;;10.93;3.90;;;;;;;;;;5134470;27;20023;-60
2023/08/07 04:20:52;;;;;;;9.40;3.93;;;;;;;;;;5127328;27;20034;-63
2023/08/07 04:23:17;;;;;;;10.90;3.58;;;;;;;;;;5130430;27;20031;-61
2023/08/07 04:25:42;;;;;;;10.13;3.80;;;;;;;;;;5125465;27;20034;-60
2023/08/07 04:28:07;;;;;;;7.50;3.80;;;;;;;;;;5125365;27;20434;-61
2023/08/07 04:30:32;;;;;;;8.77;4.47;;;;;;;;;;5122062;27;20024;-62
2023/08/07 04:32:58;;;;;;;8.33;4.77;;;;;;;;;;5116581;27;20064;-61
2023/08/07 04:35:23;;;;;;;11.77;4.90;;;;;;;;;;5121864;27;20143;-63
2023/08/07 04:37:48;;;;;;;11.95;6.20;;;;;;;;;;5131018;27;20379;-62
2023/08/07 04:40:13;;;;;;;9.40;5.13;;;;;;;;;;5123172;27;20031;-62
2023/08/07 04:42:38;;;;;;;12.83;5.47;;;;;;;;;;5129435;27;20023;-63
2023/08/07 04:45:04;;;;;;;9.60;5.37;;;;;;;;;;5126164;27;20047;-61
2023/08/07 04:47:29;;;;;;;9.77;5.97;;;;;;;;;;5132071;27;20065;-61
2023/08/07 04:49:54;;;;;;;11.87;6.60;;;;;;;;;;5120929;27;20065;-61
2023/08/07 04:52:19;;;;;;;10.87;5.83;;;;;;;;;;5124579;27;20039;-63
2023/08/07 04:54:44;;;;;;;9.63;6.57;;;;;;;;;;5122893;27;20444;-62
2023/08/07 04:57:09;;;;;;;10.30;6.40;;;;;;;;;;5120696;27;20023;-62
2023/08/07 04:59:35;;;;;;;14.77;7.05;;;;;;;;;;5131676;27;20043;-64
2023/08/07 05:02:00;;;;;;;14.18;7.05;;;;;;;;;;5119773;27;20487;-61
2023/08/07 05:04:25;;;;;;;11.85;7.40;;;;;;;;;;5131831;27;20479;-61
2023/08/07 05:06:51;;;;;;;12.60;7.32;;;;;;;;;;5126444;27;20096;-62
2023/08/07 05:09:16;;;;;;;12.60;7.60;;;;;;;;;;5132094;27;20031;-63
2023/08/07 05:11:42;;;;;;;13.02;7.80;;;;;;;;;;5117901;27;20121;-61
2023/08/07 05:14:07;;;;;;;15.50;8.57;;;;;;;;;;5135290;27;20530;-62
2023/08/07 05:16:32;;;;;;;12.10;7.00;;;;;;;;;;5132676;27;20031;-63
2023/08/07 05:18:57;;;;;;;15.97;7.60;;;;;;;;;;5133267;27;20436;-62
2023/08/07 05:21:22;;;;;;;14.83;8.70;;;;;;;;;;5130648;27;20017;-62
2023/08/07 05:23:48;;;;;;;16.95;8.85;;;;;;;;;;5132557;27;20072;-62
2023/08/07 05:26:13;;;;;;;13.15;7.30;;;;;;;;;;5126689;27;20025;-62
2023/08/07 05:28:38;;;;;;;11.77;7.17;;;;;;;;;;5132622;27;20030;-62
2023/08/07 05:31:03;;;;;;;12.53;7.17;;;;;;;;;;5130386;27;20027;-62
2023/08/07 05:33:28;;;;;;;13.20;8.10;;;;;;;;;;5114943;27;20023;-62
2023/08/07 05:35:55;;;;;;;11.30;8.10;;;;;;;;;;5117908;27;20015;-64
2023/08/07 05:38:20;;;;;;;10.35;5.88;;;;;;;;;;5115908;27;20027;-62
2023/08/07 05:40:45;;;;;;;9.57;7.10;;;;;;;;;;5121029;27;20023;-63
2023/08/07 05:43:12;;;;;;;13.47;6.30;;;;;;;;;;5127180;27;20035;-62
2023/08/07 05:45:37;;;;;;;10.27;5.82;;;;;;;;;;5124324;27;20003;-63
2023/08/07 05:48:02;;;;;;;9.90;6.17;;;;;;;;;;5115610;27;20027;-62
2023/08/07 05:50:28;;;;;;;8.97;4.97;;;;;;;;;;5115776;27;20019;-64
2023/08/07 05:52:53;;;;;;;8.17;5.40;;;;;;;;;;5117888;27;20925;-63
2023/08/07 05:55:18;;;;;;;10.00;5.63;;;;;;;;;;5109776;27;20019;-63
2023/08/07 05:57:43;;;;;;;9.15;5.40;;;;;;;;;;5113877;27;20043;-63
2023/08/07 06:00:13;;;;;;;6.90;4.60;;;;;;;;;;5123927;27;20019;-62
2023/08/07 06:02:39;;;;;;;9.13;3.88;;;;;;;;;;5134149;27;20046;-64
2023/08/07 06:05:04;;;;;;;6.73;3.80;;;;;;;;;;5125191;27;20071;-65
2023/08/07 06:07:29;;;;;;;9.13;4.85;;;;;;;;;;5113420;27;20028;-63
2023/08/07 06:09:54;;;;;;;6.07;3.53;;;;;;;;;;5123954;27;20046;-64
2023/08/07 06:12:19;;;;;;;7.67;4.97;;;;;;;;;;5112129;27;20068;-63
2023/08/07 06:14:44;;;;;;;10.65;4.45;;;;;;;;;;5120090;27;20106;-64
2023/08/07 06:17:10;;;;;;;6.17;3.77;;;;;;;;;;5128663;27;20076;-63
2023/08/07 06:19:35;;;;;;;8.07;4.63;;;;;;;;;;5129707;27;20011;-64
2023/08/07 06:22:00;;;;;;;8.70;4.10;;;;;;;;;;5127095;27;20130;-63
2023/08/07 06:24:25;;;;;;;6.70;3.67;;;;;;;;;;5128289;27;20038;-64
2023/08/07 06:26:50;;;;;;;7.03;3.90;;;;;;;;;;5128148;27;20071;-62
2023/08/07 06:29:16;;;;;;;7.13;3.87;;;;;;;;;;5125498;27;20444;-62
2023/08/07 06:31:41;;;;;;;7.78;3.60;;;;;;;;;;5126420;27;20548;-63
2023/08/07 06:34:06;;;;;;;6.60;3.10;;;;;;;;;;5124626;27;20077;-62
2023/08/07 06:36:31;;;;;;;5.73;3.33;;;;;;;;;;5122874;27;20027;-63
2023/08/07 06:38:56;;;;;;;5.28;3.03;;;;;;;;;;5115325;27;20023;-62
2023/08/07 06:41:21;;;;;;;6.28;3.50;;;;;;;;;;5149154;27;20102;-62
2023/08/07 06:43:47;;;;;;;5.57;2.93;;;;;;;;;;5112472;27;20051;-65
2023/08/07 06:46:12;;;;;;;5.88;2.78;;;;;;;;;;5112264;27;20016;-64
2023/08/07 06:48:37;;;;;;;6.70;2.80;;;;;;;;;;5123703;27;20027;-62
2023/08/07 06:51:02;;;;;;;5.13;2.57;;;;;;;;;;5129660;27;20023;-63
2023/08/07 06:53:27;;;;;;;6.30;2.60;;;;;;;;;;5110403;28;20151;-64
2023/08/07 06:55:53;;;;;;;4.97;2.53;;;;;;;;;;5120818;28;20026;-65
2023/08/07 06:58:18;;;;;;;7.10;3.10;;;;;;;;;;5127205;27;20022;-63
2023/08/07 07:00:43;;;;;;;7.13;2.73;;;;;;;;;;5128086;28;20027;-64
2023/08/07 07:03:09;;;;;;;5.13;2.80;;;;;;;;;;5127760;27;20123;-61
2023/08/07 07:05:34;;;;;;;;;;;;;;;;;;5132255;27;20019;-63
2023/08/07 07:08:00;;;;;;;7.13;2.78;;;;;;;;;;5131542;28;19907;-60
2023/08/07 07:10:25;;;;;;;4.90;2.37;;;;;;;;;;5129767;27;20031;-63
2023/08/07 07:12:50;;;;;;;7.57;2.60;;;;;;;;;;5132196;27;20050;-62
2023/08/07 07:15:15;;;;;;;4.63;1.80;;;;;;;;;;5129521;28;20026;-61
2023/08/07 07:17:40;;;;;;;5.07;2.43;;;;;;;;;;5119987;27;20497;-62
2023/08/07 07:20:06;;;;;;;4.85;2.30;;;;;;;;;;5126256;28;20027;-64
2023/08/07 07:22:31;;;;;;;6.28;2.03;;;;;;;;;;5131792;27;20027;-63
2023/08/07 07:24:56;;;;;;;4.90;2.33;;;;;;;;;;5128480;27;20605;-63
2023/08/07 07:27:25;;;;;;;4.28;2.05;;;;;;;;;;5128503;27;20083;-63
2023/08/07 07:29:51;;;;;;;5.03;1.90;;;;;;;;;;5122711;28;20036;-60
2023/08/07 07:32:16;;;;;;;4.70;2.03;;;;;;;;;;5129602;27;20019;-62
2023/08/07 07:34:41;;;;;;;4.10;2.00;;;;;;;;;;5132760;28;20019;-64
2023/08/07 07:37:06;;;;;;;3.90;1.70;;;;;;;;;;5132261;27;20654;-63
2023/08/07 07:39:32;;;;;;;6.67;1.93;;;;;;;;;;5137691;27;20466;-62
2023/08/07 07:41:57;;;;;;;5.85;1.88;;;;;;;;;;5132834;27;20509;-64
2023/08/07 07:44:22;;;;;;;4.87;1.93;;;;;;;;;;5129615;27;20035;-61
2023/08/07 07:46:47;;;;;;;4.63;1.73;;;;;;;;;;5126387;27;20035;-62
2023/08/07 07:49:12;;;;;;;3.83;1.93;;;;;;;;;;5135095;27;20022;-64
2023/08/07 07:51:37;;;;;;;5.60;1.92;;;;;;;;;;5135013;27;20099;-61
2023/08/07 07:54:03;;;;;;;4.07;1.98;;;;;;;;;;5120504;27;20032;-62
2023/08/07 07:56:28;;;;;;;3.53;1.67;;;;;;;;;;5124834;27;20571;-64
2023/08/07 07:58:53;;;;;;;3.63;1.50;;;;;;;;;;5125236;27;20092;-61
2023/08/07 08:01:18;;;;;;;4.97;1.50;;;;;;;;;;5128429;27;20024;-64
2023/08/07 08:03:43;;;;;;;5.87;1.60;;;;;;;;;;5121975;27;20046;-61
2023/08/07 08:06:10;;;;;;;4.07;1.50;;;;;;;;;;5135123;27;20021;-61
2023/08/07 08:08:35;;;;;;;3.55;1.30;;;;;;;;;;5135381;27;20025;-60
2023/08/07 08:11:01;;;;;;;3.17;1.23;;;;;;;;;;5130668;27;20463;-62
2023/08/07 08:13:26;;;;;;;4.40;1.20;;;;;;;;;;5132371;27;20062;-61
2023/08/07 08:15:51;;;;;;;5.90;1.40;;;;;;;;;;5134406;27;20079;-61
2023/08/07 08:18:16;;;;;;;3.97;1.08;;;;;;;;;;5125137;27;20011;-61
2023/08/07 08:20:41;;;;;;;2.87;1.07;;;;;;;;;;5134405;27;20033;-61
2023/08/07 08:23:07;;;;;;;3.17;1.30;;;;;;;;;;5127920;27;20022;-62
2023/08/07 08:25:35;;;;;;;4.37;1.20;;;;;;;;;;5129744;27;20383;-62
2023/08/07 08:28:00;;;;;;;3.45;1.10;;;;;;;;;;5117616;27;20437;-61
2023/08/07 08:30:25;;;;;;;4.33;1.23;;;;;;;;;;5133783;27;20030;-62
2023/08/07 08:32:50;;;;;;;3.83;1.00;;;;;;;;;;5128757;27;20031;-63
2023/08/07 08:35:16;;;;;;;3.37;1.20;;;;;;;;;;5131559;27;20434;-61
2023/08/07 08:37:41;;;;;;;3.83;1.07;;;;;;;;;;5130458;27;20466;-61
2023/08/07 08:40:07;;;;;;;4.97;1.30;;;;;;;;;;5133849;27;20031;-60
2023/08/07 08:42:33;;;;;;;3.72;1.38;;;;;;;;;;5121733;27;20034;-63
2023/08/07 08:44:59;;;;;;;2.67;1.02;;;;;;;;;;5134170;27;20019;-61
2023/08/07 08:47:29;;;;;;;4.32;1.30;;;;;;;;;;5135202;27;20059;-62
2023/08/07 08:49:57;;;;;;;3.75;1.30;;;;;;;;;;5135077;27;20019;-60
2023/08/07 08:52:22;;;;;;;3.05;1.23;;;;;;;;;;5121198;27;20027;-62
2023/08/07 08:54:48;;;;;;;4.00;1.42;;;;;;;;;;5115381;27;20023;-61
2023/08/07 08:57:13;;;;;;;4.85;1.40;;;;;;;;;;5132430;27;20046;-61
2023/08/07 08:59:40;;;;;;;3.08;1.30;;;;;;;;;;5133627;27;20097;-60
2023/08/07 09:02:06;;;;;;;3.85;1.25;;;;;;;;;;5133867;27;20486;-62
2023/08/07 09:04:31;;;;;;;7.28;1.55;;;;;;;;;;5127852;27;20491;-61
2023/08/07 09:06:56;;;;;;;2.87;1.10;;;;;;;;;;5133535;27;20042;-62
2023/08/07 09:09:22;;;;;;;3.57;0.90;;;;;;;;;;5134268;27;20023;-61
2023/08/07 09:11:48;;;;;;;3.67;1.00;;;;;;;;;;5123888;27;20051;-62
2023/08/07 09:14:15;;;;;;;3.97;1.00;;;;;;;;;;5131408;27;20402;-60
2023/08/07 09:16:40;;;;;;;4.00;0.85;;;;;;;;;;5133546;27;20020;-60
2023/08/07 09:19:06;;;;;;;3.43;1.00;;;;;;;;;;5133873;27;20021;-61
2023/08/07 09:21:31;;;;;;;3.95;1.00;;;;;;;;;;5133971;27;20462;-63
2023/08/07 09:23:56;;;;;;;4.63;1.10;;;;;;;;;;5134006;27;20084;-61
2023/08/07 09:26:23;;;;;;;2.77;1.00;;;;;;;;;;5133588;27;20016;-62
2023/08/07 09:28:50;;;;;;;4.10;0.93;;;;;;;;;;5127578;27;20038;-62
2023/08/07 09:31:16;;;;;;;2.03;0.88;;;;;;;;;;5133049;27;20007;-62
2023/08/07 09:33:41;;;;;;;2.25;0.95;;;;;;;;;;5132840;27;20489;-61
2023/08/07 09:36:06;;;;;;;2.50;0.90;;;;;;;;;;5133042;27;20020;-62
2023/08/07 09:38:32;;;;;;;3.73;0.90;;;;;;;;;;5132838;27;20478;-62
2023/08/07 09:41:02;;;;;;;4.65;0.90;;;;;;;;;;5132905;27;20033;-62
2023/08/07 09:43:28;;;;;;;3.22;1.08;;;;;;;;;;5129963;27;20069;-62
2023/08/07 09:46:01;;;;;;;2.80;0.95;;;;;;;;;;5133672;27;20011;-60
2023/08/07 09:48:27;;;;;;;2.63;0.90;;;;;;;;;;5132881;27;20028;-61
2023/08/07 09:50:53;;;;;;;3.83;0.82;;;;;;;;;;5132702;27;20030;-62
2023/08/07 09:53:24;;;;;;;3.03;1.20;;;;;;;;;;5132105;27;20019;-62
2023/08/07 09:55:51;;;;;;;2.60;0.90;;;;;;;;;;5132336;27;20102;-61
2023/08/07 09:58:17;;;;;;;2.97;0.90;;;;;;;;;;5130712;27;20027;-62
2023/08/07 10:00:42;;;;;;;3.22;1.00;;;;;;;;;;5112124;28;20024;-63
2023/08/07 10:03:07;;;;;;;3.10;0.90;;;;;;;;;;5111704;28;20027;-62
2023/08/07 10:05:32;;;;;;;2.20;0.87;;;;;;;;;;5113276;28;20043;-61
2023/08/07 10:07:58;;;;;;;2.57;0.90;;;;;;;;;;5113353;28;20378;-61
2023/08/07 10:10:25;;;;;;;2.58;0.70;;;;;;;;;;5121713;27;20027;-60
2023/08/07 10:12:50;;;;;;;2.05;0.80;;;;;;;;;;5131270;27;20023;-61
2023/08/07 10:15:15;;;;;;;2.63;1.00;;;;;;;;;;5133652;27;20019;-60
2023/08/07 10:17:40;;;;;;;1.50;0.70;;;;;;;;;;5132956;27;20486;-63
2023/08/07 10:20:07;;;;;;;3.40;0.83;;;;;;;;;;5130547;27;20456;-65
2023/08/07 10:22:33;;;;;;;2.80;1.00;;;;;;;;;;5131879;27;20079;-60
2023/08/07 10:25:00;;;;;;;2.33;0.80;;;;;;;;;;5130447;27;20031;-62
2023/08/07 10:27:25;;;;;;;2.60;0.80;;;;;;;;;;5122667;27;20027;-62
2023/08/07 10:29:53;;;;;;;2.67;1.35;;;;;;;;;;5132245;27;20023;-63
2023/08/07 10:32:19;;;;;;;2.58;0.90;;;;;;;;;;5129723;27;20030;-60
2023/08/07 10:34:51;;;;;;;1.98;0.80;;;;;;;;;;5131268;27;20075;-61
2023/08/07 10:37:35;;;;;;;2.45;0.82;;;;;;;;;;5123195;27;20066;-62
2023/08/07 10:40:03;;;;;;;3.08;1.00;;;;;;;;;;5125490;27;20095;-62
2023/08/07 10:42:32;;;;;;;2.45;1.02;;;;;;;;;;5123740;27;20019;-62
2023/08/07 10:45:00;;;;;;;3.13;1.00;;;;;;;;;;5131314;27;20030;-61
2023/08/07 10:47:35;;;;;;;2.28;1.00;;;;;;;;;;5131677;27;20019;-64
2023/08/07 10:50:00;;;;;;;2.83;0.98;;;;;;;;;;5131665;27;20026;-61
2023/08/07 10:52:25;;;;;;;3.07;1.00;;;;;;;;;;5129630;27;20023;-61
2023/08/07 10:54:50;;;;;;;2.17;0.90;;;;;;;;;;5131585;28;20098;-59
2023/08/07 10:57:17;;;;;;;1.87;0.80;;;;;;;;;;5130124;27;20054;-62
2023/08/07 11:00:04;;;;;;;4.18;1.08;;;;;;;;;;5127149;27;20102;-61
2023/08/07 11:02:30;;;;;;;2.05;0.88;;;;;;;;;;5131453;27;20057;-61
2023/08/07 11:04:55;;;;;;;;;;;;;;;;;;5131368;27;20505;-62
2023/08/07 11:07:27;;;;;;;2.55;1.02;;;;;;;;;;5131763;27;20359;-62
2023/08/07 11:09:56;;;;;;;1.98;0.82;;;;;;;;;;5122282;27;20468;-61
2023/08/07 11:12:24;;;;;;;3.15;0.88;;;;;;;;;;5126889;27;20498;-63
2023/08/07 11:14:49;;;;;;;2.90;0.88;;;;;;;;;;5133445;27;20027;-62
2023/08/07 11:17:15;;;;;;;2.80;0.80;;;;;;;;;;5135556;27;20016;-62
2023/08/07 11:19:41;;;;;;;4.28;0.90;;;;;;;;;;5135664;27;20019;-62
2023/08/07 11:22:06;;;;;;;3.80;1.00;;;;;;;;;;5135361;27;20022;-61
2023/08/07 11:24:31;;;;;;;2.90;0.90;;;;;;;;;;5133099;27;20023;-62
2023/08/07 11:26:58;;;;;;;2.27;0.80;;;;;;;;;;5134220;27;20023;-62
2023/08/07 11:29:24;;;;;;;3.35;0.82;;;;;;;;;;5135277;27;20025;-63
2023/08/07 11:31:49;;;;;;;;;;;;;;;;;;5135773;27;20019;-62
2023/08/07 11:34:16;;;;;;;3.50;1.00;;;;;;;;;;5134880;27;19919;-63
2023/08/07 11:36:42;;;;;;;2.42;0.90;;;;;;;;;;5135318;27;20424;-62
2023/08/07 11:39:08;;;;;;;2.88;0.93;;;;;;;;;;5135310;27;20095;-62
2023/08/07 11:41:33;;;;;;;3.00;0.80;;;;;;;;;;5128127;27;20511;-61
2023/08/07 11:43:59;;;;;;;2.67;0.90;;;;;;;;;;5134336;27;20038;-61
2023/08/07 11:46:24;;;;;;;3.78;0.90;;;;;;;;;;5135129;27;20019;-61
2023/08/07 11:48:51;;;;;;;3.57;0.93;;;;;;;;;;5135017;27;20034;-61
2023/08/07 11:51:16;;;;;;;3.78;1.00;;;;;;;;;;5135215;27;20014;-62
2023/08/07 11:53:42;;;;;;;2.20;0.70;;;;;;;;;;5134511;27;20106;-61
2023/08/07 11:56:09;;;;;;;3.67;0.90;;;;;;;;;;5133014;27;20098;-61
2023/08/07 11:58:38;;;;;;;3.60;0.93;;;;;;;;;;5135099;27;20027;-63
2023/08/07 12:01:04;;;;;;;3.15;0.70;;;;;;;;;;5134832;27;20433;-62
2023/08/07 12:03:36;;;;;;;3.17;0.80;;;;;;;;;;5134357;27;20555;-60
2023/08/07 12:06:02;;;;;;;2.28;0.60;;;;;;;;;;5117018;27;20034;-60
2023/08/07 12:08:31;;;;;;;2.55;0.80;;;;;;;;;;5113003;27;20475;-60
2023/08/07 12:10:57;;;;;;;1.98;0.60;;;;;;;;;;5128807;27;20084;-61
2023/08/07 12:13:29;;;;;;;3.08;0.82;;;;;;;;;;5124858;27;20413;-59
2023/08/07 12:15:54;;;;;;;2.33;0.73;;;;;;;;;;5113653;28;20015;-59
2023/08/07 12:18:20;;;;;;;2.08;0.70;;;;;;;;;;5114095;28;20057;-61
2023/08/07 12:20:46;;;;;;;2.42;0.70;;;;;;;;;;5125214;27;20028;-62
2023/08/07 12:23:14;;;;;;;1.52;0.63;;;;;;;;;;5123090;27;20483;-62
2023/08/07 12:25:39;;;;;;;1.95;0.60;;;;;;;;;;5132333;27;20015;-62
2023/08/07 12:28:04;;;;;;;1.70;0.70;;;;;;;;;;5134244;27;20391;-63
2023/08/07 12:30:33;;;;;;;1.40;0.60;;;;;;;;;;5134159;27;20027;-60
2023/08/07 12:32:58;;;;;;;1.25;0.43;;;;;;;;;;5131930;27;20045;-61
2023/08/07 12:35:24;;;;;;;3.38;0.60;;;;;;;;;;5129991;27;20649;-60
2023/08/07 12:37:49;;;;;;;1.92;0.60;;;;;;;;;;5126865;27;20035;-62
2023/08/07 12:40:19;;;;;;;3.07;0.50;;;;;;;;;;5130554;27;20026;-62
2023/08/07 12:42:44;;;;;;;1.30;0.40;;;;;;;;;;5130438;27;20068;-61
2023/08/07 12:45:09;;;;;;;1.98;0.60;;;;;;;;;;5134979;27;20065;-62
2023/08/07 12:47:35;;;;;;;1.80;0.60;;;;;;;;;;5134859;27;20019;-61
2023/08/07 12:50:00;;;;;;;0.85;0.50;;;;;;;;;;5135124;27;20427;-61
2023/08/07 12:52:25;;;;;;;1.58;0.50;;;;;;;;;;5128278;27;20020;-64
2023/08/07 12:54:50;;;;;;;1.93;0.50;;;;;;;;;;5132785;27;20019;-61
2023/08/07 12:57:16;;;;;;;1.42;0.50;;;;;;;;;;5133705;27;20363;-63
2023/08/07 12:59:41;;;;;;;1.03;0.50;;;;;;;;;;5132865;27;20015;-60
2023/08/07 13:02:06;;;;;;;2.53;0.50;;;;;;;;;;5134207;27;20068;-62
2023/08/07 13:04:33;;;;;;;2.63;0.70;;;;;;;;;;5133745;27;20038;-61
2023/08/07 13:06:58;;;;;;;2.47;0.82;;;;;;;;;;5134219;27;20099;-62
2023/08/07 13:09:23;;;;;;;1.37;0.63;;;;;;;;;;5133240;27;20447;-61
2023/08/07 13:11:48;;;;;;;2.00;0.70;;;;;;;;;;5136180;27;20015;-61
2023/08/07 13:14:13;;;;;;;1.38;0.70;;;;;;;;;;5132856;27;20015;-59
2023/08/07 13:16:39;;;;;;;1.20;0.52;;;;;;;;;;5133452;27;20034;-61
2023/08/07 13:19:04;;;;;;;1.33;0.60;;;;;;;;;;5131771;27;20501;-61
2023/08/07 13:21:29;;;;;;;1.73;0.70;;;;;;;;;;5133411;27;20054;-60
2023/08/07 13:23:55;;;;;;;3.00;0.70;;;;;;;;;;5131112;27;20035;-60
2023/08/07 13:26:20;;;;;;;4.93;0.60;;;;;;;;;;5132961;27;20043;-62
2023/08/07 13:28:45;;;;;;;2.83;0.60;;;;;;;;;;5133048;27;20027;-60
2023/08/07 13:31:10;;;;;;;1.33;0.50;;;;;;;;;;5133416;27;20443;-61
2023/08/07 13:33:35;;;;;;;1.73;0.50;;;;;;;;;;5128565;27;20023;-60
2023/08/07 13:36:01;;;;;;;1.03;0.40;;;;;;;;;;5112023;28;20421;-60
2023/08/07 13:38:26;;;;;;;1.15;0.40;;;;;;;;;;5112883;27;20368;-61
2023/08/07 13:40:51;;;;;;;1.57;0.40;;;;;;;;;;5132668;27;20015;-61
2023/08/07 13:43:17;;;;;;;2.60;0.50;;;;;;;;;;5132125;27;20023;-62
2023/08/07 13:45:42;;;;;;;1.10;0.50;;;;;;;;;;5133002;27;20838;-60
2023/08/07 13:48:09;;;;;;;2.90;0.53;;;;;;;;;;5132659;27;20030;-60
2023/08/07 13:50:34;;;;;;;1.70;0.50;;;;;;;;;;5132633;27;20637;-61
2023/08/07 13:52:59;;;;;;;2.90;0.60;;;;;;;;;;5130774;27;20019;-61
2023/08/07 13:55:24;;;;;;;1.50;0.50;;;;;;;;;;5132229;27;20026;-60
2023/08/07 13:57:50;;;;;;;1.05;0.38;;;;;;;;;;5132313;27;20019;-61
2023/08/07 14:00:15;;;;;;;1.33;0.40;;;;;;;;;;5132615;27;20059;-62
2023/08/07 14:02:40;;;;;;;1.13;0.47;;;;;;;;;;5132212;27;20019;-61
2023/08/07 14:05:05;;;;;;;1.73;0.50;;;;;;;;;;5132196;27;20039;-64
2023/08/07 14:07:30;;;;;;;0.95;0.40;;;;;;;;;;5131918;27;20086;-63
2023/08/07 14:09:56;;;;;;;3.33;0.70;;;;;;;;;;5131028;27;20095;-62
2023/08/07 14:12:21;;;;;;;0.73;0.38;;;;;;;;;;5132298;27;20027;-60
2023/08/07 14:14:46;;;;;;;4.13;0.80;;;;;;;;;;5131675;27;20022;-59
2023/08/07 14:17:11;;;;;;;6.50;0.80;;;;;;;;;;5132801;27;20026;-62
2023/08/07 14:19:37;;;;;;;1.80;0.80;;;;;;;;;;5132510;27;20019;-61
2023/08/07 14:22:02;;;;;;;3.40;0.80;;;;;;;;;;5132534;27;20038;-61
2023/08/07 14:24:27;;;;;;;3.47;0.80;;;;;;;;;;5129466;27;20031;-60
2023/08/07 14:26:52;;;;;;;3.27;0.70;;;;;;;;;;5132191;27;20819;-60
2023/08/07 14:29:17;;;;;;;2.93;0.80;;;;;;;;;;5131965;27;20015;-59
2023/08/07 14:31:43;;;;;;;3.37;0.70;;;;;;;;;;5132296;27;20020;-59
2023/08/07 14:34:08;;;;;;;2.47;0.77;;;;;;;;;;5131855;27;20015;-59